createdAt,value
2022-11-03T00:00:12.626Z,15.78
2022-11-03T00:02:47.182Z,16.77
2022-11-03T00:05:38.638Z,18.67
2022-11-03T00:10:45.300Z,18.07
2022-11-03T00:13:18.060Z,17.90
2022-11-03T00:15:51.440Z,18.95
2022-11-03T00:18:24.222Z,17.15
2022-11-03T00:21:03.177Z,18.55
2022-11-03T00:23:37.905Z,18.48
2022-11-03T00:26:28.026Z,19.17
2022-11-03T00:29:03.263Z,17.52
2022-11-03T00:31:39.145Z,18.98
2022-11-03T00:34:11.975Z,20.08
2022-11-03T00:36:45.786Z,18.30
2022-11-03T00:39:18.448Z,18.90
2022-11-03T00:41:52.412Z,18.95
2022-11-03T00:44:25.347Z,19.80
2022-11-03T00:46:59.429Z,19.00
2022-11-03T00:49:31.988Z,19.12
2022-11-03T00:52:04.437Z,18.20
2022-11-03T00:54:37.362Z,18.67
2022-11-03T00:57:09.835Z,18.92
2022-11-03T00:59:42.206Z,19.92
2022-11-03T01:02:14.792Z,19.07
2022-11-03T01:05:05.685Z,19.50
2022-11-03T01:07:38.781Z,20.68
2022-11-03T01:10:11.996Z,20.05
2022-11-03T01:12:44.490Z,19.65
2022-11-03T01:15:17.640Z,20.00
2022-11-03T01:17:50.352Z,20.55
2022-11-03T01:20:23.395Z,21.50
2022-11-03T01:22:55.827Z,21.23
2022-11-03T01:25:27.545Z,19.60
2022-11-03T01:28:00.257Z,21.40
2022-11-03T01:30:33.094Z,20.82
2022-11-03T01:33:05.866Z,20.55
2022-11-03T01:35:38.325Z,21.73
2022-11-03T01:38:10.832Z,22.65
2022-11-03T01:40:43.508Z,22.87
2022-11-03T01:43:23.021Z,24.07
2022-11-03T01:46:06.578Z,25.77
2022-11-03T01:48:47.494Z,24.30
2022-11-03T01:51:22.165Z,23.90
2022-11-03T01:53:55.302Z,24.05
2022-11-03T01:56:27.696Z,25.10
2022-11-03T01:59:00.209Z,24.27
2022-11-03T02:01:33.265Z,23.92
2022-11-03T02:04:10.131Z,22.85
2022-11-03T02:06:44.128Z,24.35
2022-11-03T02:09:16.660Z,23.98
2022-11-03T02:12:07.795Z,24.00
2022-11-03T02:14:54.335Z,23.18
2022-11-03T02:17:27.473Z,22.87
2022-11-03T02:20:08.910Z,22.52
2022-11-03T02:23:06.217Z,22.07
2022-11-03T02:25:56.281Z,21.60
2022-11-03T02:28:31.704Z,22.25
2022-11-03T02:31:32.689Z,21.70
2022-11-03T02:34:12.933Z,21.65
2022-11-03T02:37:08.692Z,21.02
2022-11-03T02:40:06.250Z,20.92
2022-11-03T02:42:39.131Z,20.37
2022-11-03T02:45:17.288Z,21.80
2022-11-03T02:47:48.894Z,22.25
2022-11-03T02:50:23.063Z,22.82
2022-11-03T02:52:55.593Z,21.05
2022-11-03T02:56:02.613Z,21.40
2022-11-03T02:58:49.195Z,20.43
2022-11-03T03:01:36.181Z,21.73
2022-11-03T03:04:10.414Z,21.23
2022-11-03T03:09:25.603Z,20.85
2022-11-03T03:11:58.188Z,20.68
2022-11-03T03:14:34.708Z,21.12
2022-11-03T03:17:17.516Z,19.55
2022-11-03T03:20:11.081Z,20.65
2022-11-03T03:23:09.051Z,21.12
2022-11-03T03:25:54.305Z,21.27
2022-11-03T03:28:37.664Z,22.17
2022-11-03T03:31:13.333Z,21.50
2022-11-03T03:33:47.950Z,20.80
2022-11-03T03:36:21.057Z,21.85
2022-11-03T03:39:00.084Z,20.35
2022-11-03T03:41:33.364Z,21.62
2022-11-03T03:44:07.723Z,20.90
2022-11-03T03:46:52.836Z,21.97
2022-11-03T03:49:25.591Z,23.30
2022-11-03T03:51:58.615Z,21.15
2022-11-03T03:54:31.253Z,21.65
2022-11-03T03:57:06.137Z,21.42
2022-11-03T04:02:10.670Z,19.75
2022-11-03T04:04:44.126Z,19.15
2022-11-03T04:07:39.321Z,20.92
2022-11-03T04:10:10.373Z,21.40
2022-11-03T04:13:02.450Z,21.23
2022-11-03T04:15:53.674Z,22.27
2022-11-03T04:18:45.763Z,23.35
2022-11-03T04:21:36.008Z,22.85
2022-11-03T04:24:08.643Z,23.70
2022-11-03T04:26:40.949Z,23.00
2022-11-03T04:29:13.478Z,22.98
2022-11-03T04:31:46.059Z,22.87
2022-11-03T04:34:18.646Z,22.25
2022-11-03T04:36:51.097Z,24.02
2022-11-03T04:39:23.500Z,24.50
2022-11-03T04:41:56.096Z,23.25
2022-11-03T04:44:28.810Z,22.70
2022-11-03T04:47:01.430Z,22.40
2022-11-03T04:49:33.896Z,22.42
2022-11-03T04:52:09.752Z,21.73
2022-11-03T04:54:42.710Z,23.52
2022-11-03T04:57:15.928Z,22.77
2022-11-03T04:59:53.875Z,21.90
2022-11-03T05:02:26.480Z,23.40
2022-11-03T05:04:58.856Z,22.55
2022-11-03T05:07:36.804Z,22.77
2022-11-03T05:10:12.854Z,24.10
2022-11-03T05:12:45.424Z,22.48
2022-11-03T05:15:35.404Z,22.85
2022-11-03T05:18:33.437Z,23.27
2022-11-03T05:21:12.513Z,23.05
2022-11-03T05:23:56.379Z,23.22
2022-11-03T05:26:35.971Z,23.25
2022-11-03T05:29:19.665Z,23.90
2022-11-03T05:31:55.331Z,23.02
2022-11-03T05:34:49.825Z,24.18
2022-11-03T05:37:30.611Z,24.20
2022-11-03T05:40:24.962Z,23.52
2022-11-03T05:43:02.549Z,23.00
2022-11-03T05:45:36.285Z,22.50
2022-11-03T05:48:40.275Z,22.62
2022-11-03T05:51:25.629Z,23.45
2022-11-03T05:54:00.343Z,22.02
2022-11-03T05:56:33.326Z,21.82
2022-11-03T05:59:06.574Z,18.82
2022-11-03T06:01:40.006Z,18.95
2022-11-03T06:04:37.582Z,18.73
2022-11-03T06:07:27.611Z,18.15
2022-11-03T06:10:01.547Z,16.05
2022-11-03T06:12:34.162Z,17.45
2022-11-03T06:15:11.157Z,17.67
2022-11-03T06:17:43.680Z,15.20
2022-11-03T06:20:21.676Z,15.83
2022-11-03T06:22:56.320Z,14.05
2022-11-03T06:25:37.447Z,15.58
2022-11-03T06:28:14.877Z,13.88
2022-11-03T06:30:48.084Z,14.65
2022-11-03T06:33:29.494Z,13.90
2022-11-03T06:36:21.118Z,12.85
2022-11-03T06:38:58.362Z,12.00
2022-11-03T06:41:39.706Z,11.70
2022-11-03T06:44:27.185Z,11.20
2022-11-03T06:47:07.407Z,11.20
2022-11-03T06:49:41.272Z,10.35
2022-11-03T06:52:35.039Z,11.45
2022-11-03T06:55:29.722Z,10.32
2022-11-03T06:58:21.684Z,10.32
2022-11-03T07:00:57.715Z,12.40
2022-11-03T07:03:31.614Z,12.45
2022-11-03T07:06:27.781Z,11.00
2022-11-03T07:09:09.973Z,10.00
2022-11-03T10:42:06.482Z,2.22
2022-11-03T10:44:38.884Z,2.47
2022-11-03T10:47:18.110Z,2.00
2022-11-03T10:49:50.984Z,2.60
2022-11-03T10:52:30.045Z,2.90
2022-11-03T10:55:02.703Z,3.40
2022-11-03T10:57:35.196Z,3.15
2022-11-03T11:00:09.763Z,3.87
2022-11-03T11:02:43.891Z,2.72
2022-11-03T11:05:24.301Z,2.05
2022-11-03T11:07:58.289Z,2.35
2022-11-03T11:10:32.474Z,2.12
2022-11-03T11:13:24.551Z,2.33
2022-11-03T11:16:01.771Z,2.05
2022-11-03T11:18:42.023Z,2.12
2022-11-03T11:21:26.487Z,2.30
2022-11-03T11:23:59.090Z,2.40
2022-11-03T11:26:36.109Z,2.60
2022-11-03T11:29:16.453Z,2.45
2022-11-03T11:31:57.748Z,2.12
2022-11-03T11:34:39.910Z,2.33
2022-11-03T11:37:17.859Z,2.45
2022-11-03T11:39:50.778Z,3.22
2022-11-03T11:42:23.386Z,3.60
2022-11-03T11:45:02.629Z,3.27
2022-11-03T11:47:47.339Z,3.40
2022-11-03T11:50:23.950Z,4.05
2022-11-03T11:53:02.957Z,4.30
2022-11-03T11:55:49.297Z,3.30
2022-11-03T11:58:42.892Z,3.52
2022-11-03T12:01:34.317Z,3.42
2022-11-03T12:04:21.129Z,3.08
2022-11-03T12:06:53.563Z,3.45
2022-11-03T12:09:28.425Z,2.83
2022-11-03T12:12:08.349Z,2.90
2022-11-03T12:14:38.977Z,3.33
2022-11-03T12:17:23.461Z,2.92
2022-11-03T12:19:56.829Z,2.70
2022-11-03T12:22:41.810Z,2.10
2022-11-03T12:25:39.402Z,2.70
2022-11-03T12:28:11.719Z,3.00
2022-11-03T12:30:44.954Z,2.80
2022-11-03T12:33:17.452Z,2.77
2022-11-03T12:35:49.989Z,2.90
2022-11-03T12:38:22.482Z,3.10
2022-11-03T12:40:55.102Z,3.72
2022-11-03T12:43:27.842Z,3.35
2022-11-03T12:46:00.353Z,3.35
2022-11-03T12:48:33.079Z,3.72
2022-11-03T12:51:05.525Z,3.80
2022-11-03T12:53:37.917Z,3.33
2022-11-03T12:56:11.348Z,2.85
2022-11-03T12:58:45.596Z,2.85
2022-11-03T13:01:19.017Z,3.17
2022-11-03T13:06:24.536Z,2.85
2022-11-03T13:08:58.740Z,3.10
2022-11-03T13:11:49.287Z,3.50
2022-11-03T13:14:21.798Z,3.92
2022-11-03T13:16:55.207Z,4.10
2022-11-03T13:19:27.809Z,3.83
2022-11-03T13:22:01.908Z,5.35
2022-11-03T13:24:34.359Z,4.70
2022-11-03T13:27:06.676Z,4.83
2022-11-03T13:29:39.695Z,4.40
2022-11-03T13:32:11.991Z,5.65
2022-11-03T13:34:45.055Z,8.28
2022-11-03T13:37:17.517Z,5.90
2022-11-03T13:39:50.054Z,4.58
2022-11-03T13:42:22.537Z,4.70
2022-11-03T13:47:41.988Z,4.77
2022-11-03T13:50:19.938Z,4.30
2022-11-03T13:52:39.699Z,4.70
2022-11-03T14:00:22.726Z,4.70
2022-11-03T14:05:29.935Z,4.60
2022-11-03T14:08:02.670Z,4.92
2022-11-03T14:10:36.787Z,4.78
2022-11-03T14:13:10.079Z,5.58
2022-11-03T14:15:42.815Z,6.35
2022-11-03T14:18:15.394Z,5.15
2022-11-03T14:20:49.524Z,6.20
2022-11-03T14:23:22.484Z,6.00
2022-11-03T14:26:06.418Z,5.60
2022-11-03T14:28:30.084Z,5.47
2022-11-03T14:31:04.585Z,5.53
2022-11-03T14:33:37.058Z,5.05
2022-11-03T14:36:09.681Z,5.05
2022-11-03T14:38:46.245Z,4.85
2022-11-03T14:41:34.740Z,4.30
2022-11-03T14:44:07.139Z,4.42
2022-11-03T14:46:39.534Z,4.30
2022-11-03T14:49:16.865Z,4.55
2022-11-03T14:51:49.885Z,3.98
2022-11-03T14:54:23.152Z,3.98
2022-11-03T14:56:55.930Z,3.52
2022-11-03T14:59:28.696Z,3.33
2022-11-03T15:02:01.818Z,3.10
2022-11-03T15:04:34.684Z,3.12
2022-11-03T15:07:08.377Z,2.90
2022-11-03T15:09:40.676Z,3.60
2022-11-03T15:12:14.298Z,3.65
2022-11-03T15:14:46.903Z,3.60
2022-11-03T15:17:19.533Z,3.90
2022-11-03T15:19:52.323Z,3.77
2022-11-03T15:25:16.010Z,4.22
2022-11-03T15:27:33.181Z,3.83
2022-11-03T15:30:07.980Z,3.85
2022-11-03T15:35:25.755Z,3.85
2022-11-03T15:37:59.304Z,3.87
2022-11-03T15:40:32.503Z,3.67
2022-11-03T15:43:06.299Z,4.10
2022-11-03T15:45:39.995Z,3.72
2022-11-03T15:48:12.867Z,3.80
2022-11-03T15:50:45.732Z,3.92
2022-11-03T15:53:18.206Z,4.00
2022-11-03T15:55:50.823Z,4.25
2022-11-03T15:58:23.698Z,4.87
2022-11-03T19:27:20.065Z,14.23
2022-11-03T19:29:52.645Z,7.20
2022-11-03T19:32:32.536Z,6.72
2022-11-03T19:35:11.648Z,5.70
2022-11-03T19:38:03.404Z,6.95
2022-11-03T19:40:36.422Z,9.13
2022-11-03T19:43:12.003Z,6.83
2022-11-03T19:45:44.934Z,6.62
2022-11-03T19:48:25.262Z,6.45
2022-11-03T19:50:51.814Z,6.25
2022-11-03T19:53:28.053Z,9.28
2022-11-03T19:56:01.521Z,6.00
2022-11-03T19:58:34.651Z,9.43
2022-11-03T20:01:08.738Z,6.50
2022-11-03T20:03:42.198Z,6.40
2022-11-03T20:06:19.113Z,5.35
2022-11-03T20:08:49.487Z,9.05
2022-11-03T20:11:22.510Z,7.75
2022-11-03T20:13:54.956Z,8.90
2022-11-03T20:16:29.464Z,6.53
2022-11-03T20:19:02.023Z,7.72
2022-11-03T20:21:34.715Z,6.47
2022-11-03T20:24:08.711Z,5.75
2022-11-03T20:26:41.190Z,12.13
2022-11-03T20:29:15.735Z,6.53
2022-11-03T20:31:48.694Z,4.53
2022-11-03T20:36:55.143Z,5.62
2022-11-03T20:39:27.658Z,5.87
2022-11-03T20:42:25.660Z,5.00
2022-11-03T20:44:59.345Z,5.75
2022-11-03T20:47:32.799Z,5.15
2022-11-03T20:50:05.305Z,5.75
2022-11-03T20:52:52.382Z,4.85
2022-11-03T20:55:29.770Z,8.45
2022-11-03T21:00:54.063Z,9.13
2022-11-03T21:06:13.633Z,4.20
2022-11-03T21:08:47.530Z,4.72
2022-11-03T21:11:29.459Z,5.20
2022-11-03T21:14:27.791Z,4.17
2022-11-03T21:17:18.559Z,4.20
2022-11-03T21:20:01.514Z,4.20
2022-11-03T21:22:52.378Z,3.50
2022-11-03T21:25:22.034Z,4.55
2022-11-03T21:27:56.072Z,4.35
2022-11-03T21:30:28.381Z,6.20
2022-11-03T21:33:00.932Z,6.67
2022-11-03T21:35:34.044Z,5.22
2022-11-03T21:38:07.854Z,5.72
2022-11-03T21:40:56.125Z,5.45
2022-11-03T21:43:42.663Z,6.62
2022-11-03T21:46:15.860Z,6.10
2022-11-03T21:49:06.789Z,7.55
2022-11-03T21:51:39.178Z,7.92
2022-11-03T21:54:11.871Z,8.23
2022-11-03T21:56:44.316Z,7.53
2022-11-03T21:59:16.963Z,7.35
2022-11-03T22:01:53.793Z,8.18
2022-11-03T22:04:26.408Z,7.12
2022-11-03T22:06:59.816Z,7.47
2022-11-03T22:09:32.726Z,8.15
2022-11-03T22:12:06.231Z,9.25
2022-11-03T22:14:57.617Z,9.33
2022-11-03T22:17:30.090Z,20.75
2022-11-03T22:20:21.737Z,9.40
2022-11-03T22:23:12.098Z,8.75
2022-11-03T22:28:48.971Z,8.75
2022-11-03T22:31:39.480Z,8.68
2022-11-03T22:34:29.504Z,11.65
2022-11-03T22:37:01.913Z,9.33
2022-11-03T22:39:52.973Z,9.53
2022-11-03T22:45:35.202Z,8.40
2022-11-03T22:48:08.065Z,8.38
2022-11-03T22:50:41.033Z,8.13
2022-11-03T22:53:31.179Z,9.70
2022-11-03T22:56:03.653Z,9.63
2022-11-03T22:58:36.080Z,9.80
2022-11-03T23:01:12.195Z,9.18
2022-11-03T23:03:46.074Z,9.13
2022-11-03T23:06:20.721Z,8.88
2022-11-03T23:08:54.641Z,9.55
2022-11-03T23:11:30.799Z,9.28
2022-11-03T23:14:06.185Z,8.73
2022-11-03T23:16:43.981Z,8.98
2022-11-03T23:19:35.138Z,9.35
2022-11-03T23:22:08.493Z,9.13
2022-11-03T23:24:58.822Z,8.78
2022-11-03T23:27:31.679Z,9.60
2022-11-03T23:30:04.113Z,17.40
2022-11-03T23:32:36.787Z,10.48
2022-11-03T23:35:10.682Z,9.18
2022-11-03T23:37:43.297Z,9.15
2022-11-03T23:40:18.782Z,9.60
2022-11-03T23:42:50.418Z,8.98
2022-11-03T23:45:40.458Z,9.30
2022-11-03T23:48:31.171Z,9.58
2022-11-03T23:51:04.909Z,10.45
2022-11-03T23:53:37.885Z,8.83
2022-11-03T23:56:28.318Z,8.93
2022-11-03T23:59:00.706Z,8.78
